createdAt,value
2023-05-10T00:01:28.385Z,10.77
2023-05-10T00:03:58.581Z,11.17
2023-05-10T00:06:31.801Z,10.57
2023-05-10T00:09:02.200Z,11.30
2023-05-10T00:11:32.406Z,11.00
2023-05-10T00:14:04.935Z,10.90
2023-05-10T00:16:37.969Z,10.15
2023-05-10T00:19:08.110Z,11.00
2023-05-10T00:21:41.022Z,12.60
2023-05-10T00:24:11.305Z,13.57
2023-05-10T00:26:42.855Z,13.10
2023-05-10T00:29:14.161Z,15.40
2023-05-10T00:34:14.237Z,15.48
2023-05-10T00:36:46.969Z,16.20
2023-05-10T00:39:17.310Z,15.75
2023-05-10T00:41:51.425Z,15.40
2023-05-10T00:44:22.462Z,14.27
2023-05-10T00:46:53.449Z,14.75
2023-05-10T00:51:56.535Z,13.05
2023-05-10T00:54:27.026Z,12.48
2023-05-10T00:56:58.636Z,11.93
2023-05-10T00:59:29.168Z,12.98
2023-05-10T01:02:00.013Z,12.65
2023-05-10T01:04:30.382Z,11.68
2023-05-10T01:07:03.727Z,12.18
2023-05-10T01:09:34.149Z,13.05
2023-05-10T01:12:08.142Z,12.20
2023-05-10T01:14:39.641Z,12.98
2023-05-10T01:17:12.285Z,12.50
2023-05-10T01:19:42.785Z,13.20
2023-05-10T01:22:49.195Z,11.88
2023-05-10T01:25:50.794Z,12.60
2023-05-10T01:28:41.368Z,12.65
2023-05-10T01:31:26.816Z,11.88
2023-05-10T01:34:03.500Z,11.98
2023-05-10T01:36:36.360Z,11.13
2023-05-10T01:39:17.145Z,10.75
2023-05-10T01:41:54.245Z,10.15
2023-05-10T01:44:34.352Z,9.85
2023-05-10T01:47:10.188Z,9.48
2023-05-10T01:49:49.893Z,9.48
2023-05-10T01:52:23.326Z,9.52
2023-05-10T01:54:58.119Z,9.43
2023-05-10T01:57:34.277Z,8.90
2023-05-10T02:00:07.484Z,8.93
2023-05-10T02:02:50.081Z,8.02
2023-05-10T02:05:26.158Z,9.07
2023-05-10T02:07:58.316Z,8.80
2023-05-10T02:10:29.849Z,8.43
2023-05-10T02:13:04.971Z,8.13
2023-05-10T02:15:36.262Z,8.40
2023-05-10T02:18:08.153Z,7.95
2023-05-10T02:20:43.214Z,8.10
2023-05-10T02:23:15.037Z,8.25
2023-05-10T02:25:47.263Z,8.52
2023-05-10T02:28:19.522Z,7.43
2023-05-10T02:30:51.626Z,8.07
2023-05-10T02:33:23.450Z,7.20
2023-05-10T02:35:57.439Z,7.00
2023-05-10T02:38:29.797Z,6.63
2023-05-10T02:41:01.355Z,7.15
2023-05-10T02:43:36.531Z,7.07
2023-05-10T02:46:07.589Z,6.85
2023-05-10T02:48:39.679Z,7.30
2023-05-10T02:51:13.775Z,6.70
2023-05-10T02:53:50.287Z,6.72
2023-05-10T02:56:32.955Z,6.53
2023-05-10T02:59:05.252Z,6.38
2023-05-10T03:01:37.386Z,6.10
2023-05-10T03:04:08.488Z,6.50
2023-05-10T03:06:41.551Z,7.28
2023-05-10T03:09:16.840Z,7.05
2023-05-10T03:12:00.796Z,6.78
2023-05-10T03:14:49.857Z,7.20
2023-05-10T03:17:26.689Z,6.63
2023-05-10T03:19:59.600Z,7.03
2023-05-10T03:22:36.360Z,6.35
2023-05-10T03:25:10.126Z,7.43
2023-05-10T03:27:44.154Z,6.45
2023-05-10T03:30:17.113Z,7.20
2023-05-10T03:32:47.397Z,6.25
2023-05-10T03:35:20.261Z,7.43
2023-05-10T03:37:53.124Z,7.03
2023-05-10T03:40:24.447Z,6.95
2023-05-10T03:42:54.632Z,6.35
2023-05-10T03:45:24.903Z,6.85
2023-05-10T03:47:55.628Z,6.38
2023-05-10T03:50:26.088Z,6.63
2023-05-10T03:52:59.879Z,6.80
2023-05-10T03:55:35.752Z,6.65
2023-05-10T03:58:06.321Z,6.35
2023-05-10T04:00:38.337Z,6.45
2023-05-10T04:03:08.796Z,7.20
2023-05-10T04:05:39.123Z,6.75
2023-05-10T04:08:12.833Z,6.75
2023-05-10T04:10:43.013Z,7.30
2023-05-10T04:13:13.581Z,7.23
2023-05-10T04:15:44.476Z,7.47
2023-05-10T04:18:14.652Z,8.30
2023-05-10T04:20:45.012Z,7.83
2023-05-10T04:23:18.316Z,8.02
2023-05-10T04:25:48.744Z,8.00
2023-05-10T04:28:18.867Z,7.40
2023-05-10T04:30:49.265Z,7.20
2023-05-10T04:33:19.598Z,8.25
2023-05-10T04:35:49.821Z,7.70
2023-05-10T04:38:22.725Z,8.68
2023-05-10T04:40:52.915Z,8.13
2023-05-10T04:43:23.063Z,8.70
2023-05-10T04:45:53.235Z,7.70
2023-05-10T04:48:25.186Z,8.37
2023-05-10T04:50:57.674Z,7.43
2023-05-10T04:53:30.585Z,7.25
2023-05-10T04:56:00.745Z,8.20
2023-05-10T04:58:30.955Z,8.07
2023-05-10T05:01:01.191Z,8.02
2023-05-10T05:03:31.411Z,8.85
2023-05-10T05:06:01.636Z,8.95
2023-05-10T05:08:34.397Z,8.27
2023-05-10T05:11:04.750Z,8.45
2023-05-10T05:13:35.082Z,8.35
2023-05-10T05:16:06.480Z,8.90
2023-05-10T05:18:36.727Z,8.45
2023-05-10T05:21:09.715Z,7.87
2023-05-10T05:23:42.559Z,7.85
2023-05-10T05:26:12.891Z,8.40
2023-05-10T05:28:43.147Z,8.32
2023-05-10T05:31:15.703Z,7.73
2023-05-10T05:33:46.793Z,8.52
2023-05-10T05:38:50.385Z,7.80
2023-05-10T05:41:21.268Z,7.82
2023-05-10T05:43:51.519Z,8.23
2023-05-10T05:46:22.032Z,7.37
2023-05-10T05:48:54.674Z,8.10
2023-05-10T05:51:26.650Z,8.32
2023-05-10T05:54:00.286Z,7.35
2023-05-10T05:56:30.619Z,6.95
2023-05-10T05:59:00.819Z,7.50
2023-05-10T06:01:30.991Z,7.20
2023-05-10T06:04:04.344Z,7.63
2023-05-10T06:06:34.655Z,6.90
2023-05-10T06:09:07.665Z,8.03
2023-05-10T06:11:38.188Z,7.00
2023-05-10T06:14:09.480Z,6.15
2023-05-10T06:16:40.027Z,6.53
2023-05-10T06:19:14.090Z,6.68
2023-05-10T06:21:44.303Z,6.85
2023-05-10T06:24:17.400Z,5.80
2023-05-10T06:26:47.945Z,5.93
2023-05-10T06:29:19.615Z,7.00
2023-05-10T06:31:52.514Z,6.60
2023-05-10T06:34:22.963Z,5.90
2023-05-10T06:36:53.545Z,5.73
2023-05-10T06:39:26.496Z,5.55
2023-05-10T06:41:56.763Z,5.57
2023-05-10T06:44:29.457Z,4.80
2023-05-10T06:47:00.030Z,6.07
2023-05-10T06:49:31.756Z,6.07
2023-05-10T06:52:01.967Z,5.50
2023-05-10T06:54:34.989Z,5.10
2023-05-10T06:57:10.804Z,5.10
2023-05-10T06:59:46.889Z,4.65
2023-05-10T07:02:17.127Z,6.28
2023-05-10T07:04:47.444Z,5.10
2023-05-10T07:07:20.656Z,4.68
2023-05-10T07:09:53.911Z,4.57
2023-05-10T07:12:24.177Z,4.95
2023-05-10T07:14:54.552Z,5.32
2023-05-10T07:17:24.985Z,4.95
2023-05-10T07:19:57.473Z,4.65
2023-05-10T07:22:28.180Z,5.90
2023-05-10T07:25:01.285Z,5.50
2023-05-10T07:27:31.406Z,6.68
2023-05-10T07:30:01.830Z,6.33
2023-05-10T07:32:32.095Z,6.07
2023-05-10T07:35:02.426Z,6.40
2023-05-10T07:37:35.288Z,6.18
2023-05-10T07:40:09.894Z,6.80
2023-05-10T07:42:40.321Z,7.25
2023-05-10T07:45:12.384Z,6.25
2023-05-10T07:47:44.029Z,6.00
2023-05-10T07:50:16.780Z,6.53
2023-05-10T07:52:47.484Z,5.90
2023-05-10T07:55:22.525Z,6.07
2023-05-10T07:57:53.011Z,6.50
2023-05-10T08:00:25.404Z,6.43
2023-05-10T08:02:55.756Z,6.13
2023-05-10T08:05:26.046Z,6.88
2023-05-10T08:07:56.301Z,6.13
2023-05-10T08:10:29.691Z,6.03
2023-05-10T08:13:00.865Z,6.22
2023-05-10T08:15:33.571Z,6.00
2023-05-10T08:18:03.811Z,6.70
2023-05-10T08:20:34.126Z,6.63
2023-05-10T08:23:04.484Z,5.90
2023-05-10T08:25:37.921Z,6.30
2023-05-10T08:28:09.965Z,6.18
2023-05-10T08:30:42.631Z,6.50
2023-05-10T08:33:13.344Z,6.35
2023-05-10T08:35:43.935Z,6.10
2023-05-10T08:38:15.465Z,6.07
2023-05-10T08:40:49.947Z,5.55
2023-05-10T08:43:21.353Z,5.63
2023-05-10T08:45:54.532Z,5.57
2023-05-10T08:48:27.642Z,5.32
2023-05-10T08:51:00.040Z,4.47
2023-05-10T08:53:33.154Z,4.50
2023-05-10T08:56:06.625Z,3.20
2023-05-10T08:58:38.011Z,3.53
2023-05-10T09:01:09.698Z,4.57
2023-05-10T09:03:46.089Z,4.20
2023-05-10T09:06:17.230Z,3.78
2023-05-10T09:08:48.931Z,3.70
2023-05-10T09:11:22.105Z,3.60
2023-05-10T09:13:56.586Z,4.30
2023-05-10T09:16:27.998Z,3.90
2023-05-10T09:18:58.178Z,3.85
2023-05-10T09:21:29.364Z,4.05
2023-05-10T09:23:59.473Z,3.80
2023-05-10T09:26:32.768Z,3.20
2023-05-10T09:29:04.723Z,3.67
2023-05-10T09:31:56.095Z,4.68
2023-05-10T09:34:36.085Z,4.32
2023-05-10T09:37:07.476Z,3.97
2023-05-10T09:39:39.291Z,3.30
2023-05-10T09:42:13.630Z,3.55
2023-05-10T09:44:44.874Z,3.47
2023-05-10T09:47:21.586Z,3.47
2023-05-10T09:49:54.178Z,4.03
2023-05-10T09:52:24.667Z,3.88
2023-05-10T09:54:58.463Z,3.47
2023-05-10T09:57:32.360Z,3.90
2023-05-10T10:00:06.301Z,2.88
2023-05-10T10:02:43.958Z,2.85
2023-05-10T10:05:16.434Z,2.90
2023-05-10T10:07:47.484Z,3.15
2023-05-10T10:12:52.796Z,3.67
2023-05-10T10:15:26.987Z,3.33
2023-05-10T10:17:58.610Z,3.10
2023-05-10T10:20:29.439Z,3.40
2023-05-10T10:25:30.189Z,3.20
2023-05-10T10:28:28.438Z,2.88
2023-05-10T10:31:04.394Z,2.55
2023-05-10T10:33:55.752Z,2.60
2023-05-10T10:36:28.369Z,2.88
2023-05-10T10:39:06.034Z,2.72
2023-05-10T10:41:38.326Z,2.70
2023-05-10T10:44:30.933Z,2.20
2023-05-10T10:47:20.061Z,2.38
2023-05-10T10:49:55.006Z,2.30
2023-05-10T10:52:31.176Z,2.50
2023-05-10T10:55:06.577Z,2.38
2023-05-10T10:57:46.688Z,2.20
2023-05-10T11:00:35.167Z,2.43
2023-05-10T11:03:10.708Z,2.50
2023-05-10T11:05:44.533Z,2.25
2023-05-10T11:08:33.708Z,2.30
2023-05-10T11:11:13.426Z,2.75
2023-05-10T11:13:45.863Z,2.47
2023-05-10T11:16:22.147Z,2.53
2023-05-10T11:19:08.183Z,2.35
2023-05-10T11:21:49.773Z,3.10
2023-05-10T11:24:22.300Z,2.15
2023-05-10T11:26:55.167Z,2.58
2023-05-10T11:29:27.502Z,2.38
2023-05-10T11:32:02.623Z,2.25
2023-05-10T11:34:34.973Z,2.75
2023-05-10T11:37:05.508Z,2.30
2023-05-10T11:39:36.476Z,2.28
2023-05-10T11:44:37.202Z,2.53
2023-05-10T11:47:10.393Z,2.30
2023-05-10T11:49:40.718Z,2.15
2023-05-10T11:52:12.994Z,2.33
2023-05-10T11:54:50.152Z,3.08
2023-05-10T11:57:20.329Z,2.40
2023-05-10T11:59:53.113Z,2.38
2023-05-10T12:02:26.223Z,2.00
2023-05-10T12:04:57.038Z,2.42
2023-05-10T12:07:27.299Z,2.28
2023-05-10T12:10:10.716Z,2.10
2023-05-10T12:12:45.949Z,2.42
2023-05-10T12:15:22.712Z,2.15
2023-05-10T12:17:56.052Z,1.92
2023-05-10T12:20:28.076Z,2.40
2023-05-10T12:23:00.774Z,2.20
2023-05-10T12:25:35.218Z,1.90
2023-05-10T12:28:09.641Z,2.58
2023-05-10T12:30:40.770Z,2.10
2023-05-10T12:33:21.593Z,2.40
2023-05-10T12:38:32.522Z,1.98
2023-05-10T12:41:07.267Z,1.70
2023-05-10T12:43:38.629Z,1.77
2023-05-10T12:46:10.226Z,2.22
2023-05-10T12:48:44.412Z,1.60
2023-05-10T12:51:18.444Z,2.03
2023-05-10T12:53:49.762Z,2.53
2023-05-10T12:56:20.357Z,2.45
2023-05-10T12:58:50.586Z,2.13
2023-05-10T13:01:20.916Z,2.13
2023-05-10T13:03:55.529Z,2.20
2023-05-10T13:06:26.026Z,2.15
2023-05-10T13:08:56.447Z,2.90
2023-05-10T13:11:26.886Z,2.58
2023-05-10T13:13:57.308Z,2.20
2023-05-10T13:16:28.040Z,2.42
2023-05-10T13:21:35.494Z,1.65
2023-05-10T13:24:06.914Z,2.28
2023-05-10T13:26:37.569Z,2.45
2023-05-10T13:29:08.121Z,2.05
2023-05-10T13:31:39.381Z,2.28
2023-05-10T13:34:12.747Z,1.88
2023-05-10T13:36:43.311Z,2.50
2023-05-10T13:39:13.536Z,2.15
2023-05-10T13:41:44.083Z,2.05
2023-05-10T13:44:17.756Z,1.95
2023-05-10T13:46:50.444Z,2.38
2023-05-10T13:49:23.637Z,2.42
2023-05-10T13:51:53.936Z,2.22
2023-05-10T13:54:24.475Z,1.60
2023-05-10T13:56:54.956Z,1.80
2023-05-10T13:59:25.693Z,2.30
2023-05-10T14:01:57.592Z,2.10
2023-05-10T14:04:36.264Z,2.35
2023-05-10T14:07:06.744Z,2.08
2023-05-10T14:09:37.390Z,1.88
2023-05-10T14:12:09.598Z,1.55
2023-05-10T14:14:40.378Z,1.98
2023-05-10T14:17:12.387Z,1.83
2023-05-10T14:19:45.562Z,2.53
2023-05-10T14:22:20.084Z,2.40
2023-05-10T14:24:50.523Z,2.10
2023-05-10T14:27:20.974Z,1.63
2023-05-10T14:29:54.418Z,2.38
2023-05-10T14:32:24.682Z,1.75
2023-05-10T14:34:59.186Z,2.13
2023-05-10T14:37:29.362Z,1.92
2023-05-10T14:39:59.752Z,1.95
2023-05-10T14:42:30.107Z,1.90
2023-05-10T14:45:00.267Z,1.70
2023-05-10T14:47:30.569Z,2.17
2023-05-10T14:50:03.337Z,1.98
2023-05-10T14:52:34.610Z,1.88
2023-05-10T14:55:05.336Z,1.95
2023-05-10T14:57:35.582Z,2.10
2023-05-10T15:00:06.272Z,2.30
2023-05-10T15:02:37.882Z,2.03
2023-05-10T15:05:15.418Z,1.90
2023-05-10T15:07:46.842Z,2.03
2023-05-10T15:10:17.002Z,2.53
2023-05-10T15:12:47.469Z,2.20
2023-05-10T15:15:17.792Z,2.65
2023-05-10T15:17:48.637Z,2.72
2023-05-10T15:20:22.000Z,2.20
2023-05-10T15:22:52.462Z,2.05
2023-05-10T15:25:24.926Z,2.15
2023-05-10T15:27:55.068Z,1.90
2023-05-10T15:30:25.581Z,2.00
2023-05-10T15:32:56.280Z,2.05
2023-05-10T15:35:30.070Z,2.55
2023-05-10T15:38:00.473Z,2.30
2023-05-10T15:40:30.766Z,2.08
2023-05-10T15:43:00.982Z,2.33
2023-05-10T15:45:31.436Z,2.05
2023-05-10T15:48:04.217Z,3.45
2023-05-10T15:50:38.383Z,2.08
2023-05-10T15:53:08.601Z,2.00
2023-05-10T15:55:38.816Z,2.33
2023-05-10T15:58:09.056Z,2.38
2023-05-10T16:00:39.384Z,2.50
2023-05-10T16:03:10.018Z,1.90
2023-05-10T16:05:42.909Z,2.40
2023-05-10T16:08:13.158Z,2.33
2023-05-10T16:10:43.500Z,2.58
2023-05-10T16:13:15.360Z,1.92
2023-05-10T16:15:45.684Z,2.50
2023-05-10T16:18:20.342Z,1.90
2023-05-10T16:20:53.571Z,2.22
2023-05-10T16:23:24.122Z,2.80
2023-05-10T16:25:55.198Z,2.47
2023-05-10T16:28:25.508Z,3.10
2023-05-10T16:30:56.859Z,2.20
2023-05-10T16:33:27.243Z,3.55
2023-05-10T16:36:00.366Z,2.90
2023-05-10T16:38:30.617Z,3.05
2023-05-10T16:41:01.076Z,2.45
2023-05-10T16:43:31.286Z,2.90
2023-05-10T16:46:01.914Z,3.92
2023-05-10T16:48:34.483Z,3.20
2023-05-10T16:51:09.513Z,2.20
2023-05-10T16:53:40.067Z,2.65
2023-05-10T16:56:10.915Z,2.97
2023-05-10T16:58:41.114Z,2.60
2023-05-10T17:01:15.766Z,2.78
2023-05-10T17:03:48.717Z,2.88
2023-05-10T17:06:21.743Z,2.75
2023-05-10T17:08:52.065Z,2.90
2023-05-10T17:11:25.170Z,2.97
2023-05-10T17:13:55.526Z,3.30
2023-05-10T17:16:26.286Z,7.63
2023-05-10T17:18:57.124Z,3.13
2023-05-10T17:24:00.370Z,2.95
2023-05-10T17:26:31.161Z,3.78
2023-05-10T17:29:01.790Z,3.70
2023-05-10T17:31:34.580Z,4.18
2023-05-10T17:34:05.741Z,3.15
2023-05-10T17:36:39.268Z,2.60
2023-05-10T17:39:09.598Z,3.65
2023-05-10T17:41:39.913Z,2.90
2023-05-10T17:44:11.047Z,3.07
2023-05-10T17:46:43.795Z,4.00
2023-05-10T17:49:14.161Z,3.08
2023-05-10T17:51:49.833Z,3.83
2023-05-10T17:54:22.562Z,3.20
2023-05-10T17:56:53.127Z,3.92
2023-05-10T17:59:23.671Z,4.63
2023-05-10T18:01:54.229Z,4.65
2023-05-10T18:04:25.244Z,4.70
2023-05-10T18:07:01.888Z,3.53
2023-05-10T18:09:34.492Z,3.63
2023-05-10T18:12:06.444Z,3.10
2023-05-10T18:14:41.200Z,3.78
2023-05-10T18:17:14.058Z,3.53
2023-05-10T18:19:45.081Z,3.20
2023-05-10T18:22:18.077Z,3.42
2023-05-10T18:24:49.150Z,3.85
2023-05-10T18:27:19.736Z,3.67
2023-05-10T18:29:50.059Z,2.38
2023-05-10T18:32:21.611Z,4.22
2023-05-10T18:34:55.991Z,3.65
2023-05-10T18:37:28.833Z,2.30
2023-05-10T18:40:01.724Z,2.63
2023-05-10T18:42:32.901Z,2.72
2023-05-10T18:45:03.772Z,3.00
2023-05-10T18:47:34.221Z,2.67
2023-05-10T18:50:07.201Z,2.95
2023-05-10T18:52:43.533Z,3.53
2023-05-10T18:55:14.325Z,3.85
2023-05-10T18:57:45.434Z,3.28
2023-05-10T19:02:47.143Z,24.85
2023-05-10T19:10:23.512Z,3.05
2023-05-10T19:12:57.518Z,3.05
2023-05-10T19:15:27.734Z,3.03
2023-05-10T19:17:58.756Z,2.65
2023-05-10T19:20:29.818Z,2.95
2023-05-10T19:23:09.777Z,2.95
2023-05-10T19:25:43.370Z,3.40
2023-05-10T19:28:15.992Z,3.47
2023-05-10T19:30:49.873Z,3.20
2023-05-10T19:33:21.321Z,3.47
2023-05-10T19:35:53.520Z,3.30
2023-05-10T19:38:29.226Z,3.50
2023-05-10T19:41:00.652Z,3.50
2023-05-10T19:43:34.249Z,3.35
2023-05-10T19:46:05.385Z,3.58
2023-05-10T19:51:10.142Z,3.55
2023-05-10T19:53:45.124Z,4.13
2023-05-10T19:56:18.492Z,4.13
2023-05-10T19:58:50.734Z,3.88
2023-05-10T20:01:21.307Z,3.97
2023-05-10T20:03:52.033Z,3.05
2023-05-10T20:06:22.534Z,3.53
2023-05-10T20:08:55.526Z,3.55
2023-05-10T20:11:25.815Z,3.33
2023-05-10T20:13:57.481Z,3.33
2023-05-10T20:16:27.871Z,3.58
2023-05-10T20:18:58.658Z,3.63
2023-05-10T20:21:29.669Z,3.50
2023-05-10T20:24:02.944Z,3.67
2023-05-10T20:26:36.014Z,3.13
2023-05-10T20:29:07.253Z,3.58
2023-05-10T20:31:37.463Z,3.10
2023-05-10T20:34:08.041Z,3.57
2023-05-10T20:36:38.517Z,3.83
2023-05-10T20:39:12.188Z,3.53
2023-05-10T20:41:42.902Z,3.30
2023-05-10T20:44:13.282Z,3.40
2023-05-10T20:46:43.755Z,3.42
2023-05-10T20:49:17.840Z,3.55
2023-05-10T20:51:48.149Z,3.47
2023-05-10T20:54:22.267Z,4.00
2023-05-10T20:56:52.744Z,3.92
2023-05-10T20:59:23.030Z,4.22
2023-05-10T21:01:56.509Z,3.75
2023-05-10T21:04:26.696Z,3.78
2023-05-10T21:06:57.267Z,3.77
2023-05-10T21:09:32.448Z,3.90
2023-05-10T21:12:03.528Z,3.78
2023-05-10T21:17:03.875Z,3.83
2023-05-10T21:19:34.129Z,3.80
2023-05-10T21:22:04.357Z,3.73
2023-05-10T21:24:39.572Z,3.63
2023-05-10T21:27:10.264Z,4.63
2023-05-10T21:29:40.754Z,3.92
2023-05-10T21:32:11.342Z,3.90
2023-05-10T21:34:42.106Z,3.85
2023-05-10T21:37:14.518Z,3.33
2023-05-10T21:39:48.594Z,4.10
2023-05-10T21:42:18.817Z,4.03
2023-05-10T21:44:52.021Z,3.90
2023-05-10T21:47:22.369Z,4.15
2023-05-10T21:49:56.169Z,3.38
2023-05-10T21:52:27.214Z,3.78
2023-05-10T21:57:30.207Z,3.80
2023-05-10T22:00:00.434Z,3.47
2023-05-10T22:02:31.032Z,3.90
2023-05-10T22:07:34.059Z,3.42
2023-05-10T22:10:07.341Z,3.90
2023-05-10T22:12:37.526Z,3.45
2023-05-10T22:15:10.955Z,3.72
2023-05-10T22:17:42.845Z,3.90
2023-05-10T22:20:13.253Z,3.90
2023-05-10T22:22:43.492Z,4.00
2023-05-10T22:25:16.282Z,3.88
2023-05-10T22:27:46.439Z,3.53
2023-05-10T22:30:17.252Z,3.43
2023-05-10T22:32:48.209Z,3.75
2023-05-10T22:35:19.708Z,3.97
2023-05-10T22:37:50.143Z,4.15
2023-05-10T22:40:23.735Z,3.97
2023-05-10T22:42:53.962Z,4.40
2023-05-10T22:45:24.395Z,4.37
2023-05-10T22:47:55.991Z,3.67
2023-05-10T22:50:32.510Z,3.63
2023-05-10T22:53:02.694Z,4.03
2023-05-10T22:55:36.761Z,3.93
2023-05-10T22:58:07.149Z,3.65
2023-05-10T23:00:38.696Z,3.67
2023-05-10T23:03:09.512Z,4.38
2023-05-10T23:05:39.663Z,3.80
2023-05-10T23:08:09.897Z,3.63
2023-05-10T23:10:42.990Z,4.13
2023-05-10T23:13:15.229Z,4.05
2023-05-10T23:15:45.473Z,3.95
2023-05-10T23:18:15.863Z,3.67
2023-05-10T23:20:46.339Z,3.95
2023-05-10T23:23:17.011Z,3.40
2023-05-10T23:25:49.771Z,3.83
2023-05-10T23:28:20.276Z,3.53
2023-05-10T23:30:57.756Z,3.50
2023-05-10T23:33:28.857Z,3.65
2023-05-10T23:38:29.141Z,3.50
2023-05-10T23:41:01.907Z,3.22
2023-05-10T23:43:32.122Z,3.55
2023-05-10T23:46:02.438Z,3.43
2023-05-10T23:48:32.688Z,3.35
2023-05-10T23:51:03.064Z,3.20
2023-05-10T23:53:33.331Z,3.67
2023-05-10T23:56:07.686Z,3.05
2023-05-10T23:58:38.901Z,3.25
